sensor_id;sensor_type;location;lat;lon;timestamp;pressure;altitude;pressure_sealevel;temperature;humidity
16544;BME280;8384;47.996;7.786;2023-03-02T00:00:44;98731.44;;;0.52;77.58
16544;BME280;8384;47.996;7.786;2023-03-02T00:03:12;98682.50;;;0.35;77.71
16544;BME280;8384;47.996;7.786;2023-03-02T00:05:38;98728.59;;;0.67;77.41
16544;BME280;8384;47.996;7.786;2023-03-02T00:08:06;98721.84;;;0.42;78.28
16544;BME280;8384;47.996;7.786;2023-03-02T00:10:32;98704.56;;;0.30;79.02
16544;BME280;8384;47.996;7.786;2023-03-02T00:12:58;98719.44;;;0.54;77.82
16544;BME280;8384;47.996;7.786;2023-03-02T00:15:23;98722.53;;;0.58;77.91
16544;BME280;8384;47.996;7.786;2023-03-02T00:17:48;98730.91;;;0.70;77.50
16544;BME280;8384;47.996;7.786;2023-03-02T00:20:14;98696.25;;;0.53;75.96
16544;BME280;8384;47.996;7.786;2023-03-02T00:22:43;98725.69;;;0.33;78.18
16544;BME280;8384;47.996;7.786;2023-03-02T00:25:10;98723.34;;;0.52;76.84
16544;BME280;8384;47.996;7.786;2023-03-02T00:27:35;98729.47;;;0.39;77.97
16544;BME280;8384;47.996;7.786;2023-03-02T00:30:01;98726.88;;;0.52;77.35
16544;BME280;8384;47.996;7.786;2023-03-02T00:32:26;98732.22;;;0.46;78.08
16544;BME280;8384;47.996;7.786;2023-03-02T00:34:52;98707.03;;;0.60;77.14
16544;BME280;8384;47.996;7.786;2023-03-02T00:37:17;98718.09;;;1.14;74.40
16544;BME280;8384;47.996;7.786;2023-03-02T00:39:43;98733.59;;;1.05;74.48
16544;BME280;8384;47.996;7.786;2023-03-02T00:42:08;98727.84;;;0.80;76.21
16544;BME280;8384;47.996;7.786;2023-03-02T00:44:33;98689.84;;;0.54;77.27
16544;BME280;8384;47.996;7.786;2023-03-02T00:46:59;98714.25;;;0.95;75.52
16544;BME280;8384;47.996;7.786;2023-03-02T00:49:24;98711.13;;;0.84;75.79
16544;BME280;8384;47.996;7.786;2023-03-02T00:51:49;98714.59;;;0.78;75.71
16544;BME280;8384;47.996;7.786;2023-03-02T00:54:15;98667.53;;;0.61;75.61
16544;BME280;8384;47.996;7.786;2023-03-02T00:56:41;98651.88;;;0.36;76.33
16544;BME280;8384;47.996;7.786;2023-03-02T00:59:09;98695.66;;;0.58;77.03
16544;BME280;8384;47.996;7.786;2023-03-02T01:01:51;98683.09;;;0.72;75.40
16544;BME280;8384;47.996;7.786;2023-03-02T01:04:26;98670.47;;;0.66;75.81
16544;BME280;8384;47.996;7.786;2023-03-02T01:06:54;98687.63;;;0.65;76.31
16544;BME280;8384;47.996;7.786;2023-03-02T01:09:20;98692.53;;;0.54;76.67
16544;BME280;8384;47.996;7.786;2023-03-02T01:11:45;98686.81;;;0.71;76.20
16544;BME280;8384;47.996;7.786;2023-03-02T01:14:10;98685.97;;;0.64;76.61
16544;BME280;8384;47.996;7.786;2023-03-02T01:16:35;98686.03;;;0.42;77.45
16544;BME280;8384;47.996;7.786;2023-03-02T01:19:01;98690.63;;;0.48;77.55
16544;BME280;8384;47.996;7.786;2023-03-02T01:21:26;98676.13;;;0.42;78.25
16544;BME280;8384;47.996;7.786;2023-03-02T01:23:52;98662.59;;;0.01;78.43
16544;BME280;8384;47.996;7.786;2023-03-02T01:26:18;98682.38;;;0.21;78.97
16544;BME280;8384;47.996;7.786;2023-03-02T01:28:43;98677.56;;;0.10;79.76
16544;BME280;8384;47.996;7.786;2023-03-02T01:31:08;98669.81;;;0.28;78.46
16544;BME280;8384;47.996;7.786;2023-03-02T01:33:34;98669.19;;;-0.02;78.98
16544;BME280;8384;47.996;7.786;2023-03-02T01:35:59;98654.81;;;0.12;78.79
16544;BME280;8384;47.996;7.786;2023-03-02T01:38:24;98657.63;;;0.26;78.28
16544;BME280;8384;47.996;7.786;2023-03-02T01:40:50;98663.88;;;0.05;79.51
16544;BME280;8384;47.996;7.786;2023-03-02T01:43:15;98659.41;;;0.19;79.46
16544;BME280;8384;47.996;7.786;2023-03-02T01:51:18;98597.69;;;-0.75;80.72
16544;BME280;8384;47.996;7.786;2023-03-02T01:53:45;98652.13;;;-0.59;81.68
16544;BME280;8384;47.996;7.786;2023-03-02T01:56:14;98644.00;;;-0.88;82.40
16544;BME280;8384;47.996;7.786;2023-03-02T01:58:40;98623.88;;;-0.34;81.41
16544;BME280;8384;47.996;7.786;2023-03-02T02:01:06;98614.88;;;-0.69;81.68
16544;BME280;8384;47.996;7.786;2023-03-02T02:03:47;98629.31;;;-0.92;83.50
16544;BME280;8384;47.996;7.786;2023-03-02T02:06:22;98639.94;;;-1.21;85.31
16544;BME280;8384;47.996;7.786;2023-03-02T02:08:48;98636.56;;;-1.08;84.85
16544;BME280;8384;47.996;7.786;2023-03-02T02:11:14;98637.03;;;-1.04;85.07
16544;BME280;8384;47.996;7.786;2023-03-02T02:13:39;98607.41;;;-1.32;84.81
16544;BME280;8384;47.996;7.786;2023-03-02T02:16:05;98628.06;;;-1.11;84.96
16544;BME280;8384;47.996;7.786;2023-03-02T02:18:32;98639.19;;;-1.29;85.83
16544;BME280;8384;47.996;7.786;2023-03-02T02:20:58;98638.75;;;-1.48;85.37
16544;BME280;8384;47.996;7.786;2023-03-02T02:23:38;98648.75;;;-1.42;86.22
16544;BME280;8384;47.996;7.786;2023-03-02T02:28:58;98639.13;;;-1.51;87.14
16544;BME280;8384;47.996;7.786;2023-03-02T02:31:47;98641.78;;;-1.36;86.12
16544;BME280;8384;47.996;7.786;2023-03-02T02:34:17;98632.44;;;-1.25;85.54
16544;BME280;8384;47.996;7.786;2023-03-02T02:36:49;98629.56;;;-1.09;84.52
16544;BME280;8384;47.996;7.786;2023-03-02T02:39:19;98630.00;;;-1.05;84.26
16544;BME280;8384;47.996;7.786;2023-03-02T02:41:46;98634.59;;;-0.99;83.96
16544;BME280;8384;47.996;7.786;2023-03-02T02:44:14;98627.91;;;-0.88;83.53
16544;BME280;8384;47.996;7.786;2023-03-02T02:46:41;98629.75;;;-0.88;83.49
16544;BME280;8384;47.996;7.786;2023-03-02T02:49:34;98628.94;;;-0.89;83.86
16544;BME280;8384;47.996;7.786;2023-03-02T02:51:58;98597.16;;;-1.07;83.05
16544;BME280;8384;47.996;7.786;2023-03-02T02:54:25;98637.84;;;-1.03;84.47
16544;BME280;8384;47.996;7.786;2023-03-02T02:56:52;98604.72;;;-1.32;85.04
16544;BME280;8384;47.996;7.786;2023-03-02T02:59:25;98629.72;;;-1.10;85.33
16544;BME280;8384;47.996;7.786;2023-03-02T03:01:54;98626.47;;;-1.06;85.22
16544;BME280;8384;47.996;7.786;2023-03-02T03:04:26;98627.09;;;-1.03;84.70
16544;BME280;8384;47.996;7.786;2023-03-02T03:07:04;98619.66;;;-1.23;84.91
16544;BME280;8384;47.996;7.786;2023-03-02T03:09:30;98638.75;;;-1.48;86.44
16544;BME280;8384;47.996;7.786;2023-03-02T03:12:10;98629.25;;;-1.81;87.58
16544;BME280;8384;47.996;7.786;2023-03-02T03:14:39;98640.03;;;-1.89;88.91
16544;BME280;8384;47.996;7.786;2023-03-02T03:17:05;98645.50;;;-1.67;88.82
16544;BME280;8384;47.996;7.786;2023-03-02T03:19:37;98636.81;;;-1.69;87.98
16544;BME280;8384;47.996;7.786;2023-03-02T03:22:03;98634.69;;;-1.59;88.02
16544;BME280;8384;47.996;7.786;2023-03-02T03:24:30;98640.34;;;-1.54;87.32
16544;BME280;8384;47.996;7.786;2023-03-02T03:26:57;98645.97;;;-1.48;87.26
16544;BME280;8384;47.996;7.786;2023-03-02T03:29:24;98639.19;;;-1.44;87.71
16544;BME280;8384;47.996;7.786;2023-03-02T03:31:51;98650.56;;;-1.42;87.78
16544;BME280;8384;47.996;7.786;2023-03-02T03:34:17;98626.09;;;-1.69;87.40
16544;BME280;8384;47.996;7.786;2023-03-02T03:36:42;98637.63;;;-1.99;88.81
16544;BME280;8384;47.996;7.786;2023-03-02T03:39:09;98642.72;;;-1.74;88.83
16544;BME280;8384;47.996;7.786;2023-03-02T03:41:34;98627.19;;;-1.93;88.44
16544;BME280;8384;47.996;7.786;2023-03-02T03:44:00;98645.59;;;-1.60;87.44
16544;BME280;8384;47.996;7.786;2023-03-02T03:46:26;98646.63;;;-1.46;87.28
16544;BME280;8384;47.996;7.786;2023-03-02T03:48:51;98640.34;;;-1.54;87.29
16544;BME280;8384;47.996;7.786;2023-03-02T03:51:16;98654.66;;;-1.61;87.68
16544;BME280;8384;47.996;7.786;2023-03-02T03:53:42;98646.63;;;-1.76;88.56
16544;BME280;8384;47.996;7.786;2023-03-02T03:56:07;98655.94;;;-1.57;88.46
16544;BME280;8384;47.996;7.786;2023-03-02T03:58:33;98661.03;;;-1.62;87.72
16544;BME280;8384;47.996;7.786;2023-03-02T04:00:59;98663.25;;;-1.66;87.56
16544;BME280;8384;47.996;7.786;2023-03-02T04:03:25;98659.72;;;-1.82;89.00
16544;BME280;8384;47.996;7.786;2023-03-02T04:05:51;98659.16;;;-1.77;88.73
16544;BME280;8384;47.996;7.786;2023-03-02T04:08:17;98662.47;;;-1.90;89.55
16544;BME280;8384;47.996;7.786;2023-03-02T04:10:43;98645.84;;;-2.00;88.94
16544;BME280;8384;47.996;7.786;2023-03-02T04:13:09;98670.44;;;-1.82;88.77
16544;BME280;8384;47.996;7.786;2023-03-02T04:15:34;98668.22;;;-1.78;88.04
16544;BME280;8384;47.996;7.786;2023-03-02T04:18:01;98675.16;;;-1.84;88.83
16544;BME280;8384;47.996;7.786;2023-03-02T04:20:26;98632.66;;;-1.87;87.58
16544;BME280;8384;47.996;7.786;2023-03-02T04:22:52;98642.63;;;-1.96;88.07
16544;BME280;8384;47.996;7.786;2023-03-02T04:25:26;98681.25;;;-1.75;88.60
16544;BME280;8384;47.996;7.786;2023-03-02T04:27:52;98687.91;;;-1.71;88.48
16544;BME280;8384;47.996;7.786;2023-03-02T04:30:21;98695.59;;;-1.68;89.38
16544;BME280;8384;47.996;7.786;2023-03-02T04:32:47;98660.16;;;-1.93;88.89
16544;BME280;8384;47.996;7.786;2023-03-02T04:35:13;98702.72;;;-1.98;90.24
16544;BME280;8384;47.996;7.786;2023-03-02T04:37:39;98697.50;;;-1.91;90.15
16544;BME280;8384;47.996;7.786;2023-03-02T04:40:06;98692.97;;;-1.91;90.24
16544;BME280;8384;47.996;7.786;2023-03-02T04:42:33;98702.25;;;-1.78;89.43
16544;BME280;8384;47.996;7.786;2023-03-02T04:44:58;98709.81;;;-1.67;89.05
16544;BME280;8384;47.996;7.786;2023-03-02T04:47:23;98707.78;;;-1.65;88.64
16544;BME280;8384;47.996;7.786;2023-03-02T04:49:48;98704.38;;;-1.59;88.50
16544;BME280;8384;47.996;7.786;2023-03-02T04:52:18;98716.41;;;-1.55;88.48
16544;BME280;8384;47.996;7.786;2023-03-02T04:54:44;98703.75;;;-1.46;89.10
16544;BME280;8384;47.996;7.786;2023-03-02T04:57:09;98724.34;;;-1.31;89.66
16544;BME280;8384;47.996;7.786;2023-03-02T04:59:34;98715.75;;;-1.27;88.55
16544;BME280;8384;47.996;7.786;2023-03-02T05:02:00;98726.84;;;-1.45;89.57
16544;BME280;8384;47.996;7.786;2023-03-02T05:04:26;98722.31;;;-1.44;90.57
16544;BME280;8384;47.996;7.786;2023-03-02T05:06:52;98728.69;;;-1.30;90.27
16544;BME280;8384;47.996;7.786;2023-03-02T05:09:17;98730.94;;;-1.19;90.38
16544;BME280;8384;47.996;7.786;2023-03-02T05:11:43;98725.34;;;-1.02;89.75
16544;BME280;8384;47.996;7.786;2023-03-02T05:14:11;98728.59;;;-0.92;88.48
16544;BME280;8384;47.996;7.786;2023-03-02T05:16:38;98723.31;;;-1.00;89.13
16544;BME280;8384;47.996;7.786;2023-03-02T05:19:06;98720.94;;;-1.25;89.91
16544;BME280;8384;47.996;7.786;2023-03-02T05:21:31;98718.97;;;-1.16;90.35
16544;BME280;8384;47.996;7.786;2023-03-02T05:23:57;98697.91;;;-1.19;89.85
16544;BME280;8384;47.996;7.786;2023-03-02T05:26:22;98711.84;;;-1.09;89.84
16544;BME280;8384;47.996;7.786;2023-03-02T05:28:48;98695.97;;;-1.26;90.14
16544;BME280;8384;47.996;7.786;2023-03-02T05:31:17;98730.63;;;-0.94;89.67
16544;BME280;8384;47.996;7.786;2023-03-02T05:33:44;98727.94;;;-0.94;89.23
16544;BME280;8384;47.996;7.786;2023-03-02T05:36:09;98719.69;;;-0.93;89.36
16544;BME280;8384;47.996;7.786;2023-03-02T05:38:34;98723.78;;;-0.82;89.25
16544;BME280;8384;47.996;7.786;2023-03-02T05:41:01;98705.19;;;-0.98;90.37
16544;BME280;8384;47.996;7.786;2023-03-02T05:43:26;98729.28;;;-0.68;89.58
16544;BME280;8384;47.996;7.786;2023-03-02T05:45:51;98735.09;;;-0.65;89.90
16544;BME280;8384;47.996;7.786;2023-03-02T05:48:17;98744.81;;;-0.64;90.05
16544;BME280;8384;47.996;7.786;2023-03-02T05:50:42;98730.56;;;-0.64;89.82
16544;BME280;8384;47.996;7.786;2023-03-02T05:53:07;98744.28;;;-0.59;88.97
16544;BME280;8384;47.996;7.786;2023-03-02T05:55:32;98695.66;;;-1.01;88.88
16544;BME280;8384;47.996;7.786;2023-03-02T05:58:04;98719.63;;;-0.63;88.39
16544;BME280;8384;47.996;7.786;2023-03-02T06:00:30;98740.63;;;-0.51;87.68
16544;BME280;8384;47.996;7.786;2023-03-02T06:02:55;98736.16;;;-0.44;87.45
16544;BME280;8384;47.996;7.786;2023-03-02T06:05:20;98763.50;;;-0.55;87.70
16544;BME280;8384;47.996;7.786;2023-03-02T06:07:47;98749.63;;;-0.59;88.74
16544;BME280;8384;47.996;7.786;2023-03-02T06:10:14;98757.06;;;-0.39;88.00
16544;BME280;8384;47.996;7.786;2023-03-02T06:12:40;98743.13;;;-0.50;87.51
16544;BME280;8384;47.996;7.786;2023-03-02T06:15:06;98737.78;;;-0.65;87.51
16544;BME280;8384;47.996;7.786;2023-03-02T06:17:32;98760.06;;;-0.49;87.02
16544;BME280;8384;47.996;7.786;2023-03-02T06:19:57;98704.25;;;-0.91;86.88
16544;BME280;8384;47.996;7.786;2023-03-02T06:22:22;98751.75;;;-0.54;87.29
16544;BME280;8384;47.996;7.786;2023-03-02T06:24:48;98765.69;;;-0.07;84.47
16544;BME280;8384;47.996;7.786;2023-03-02T06:27:13;98762.19;;;-0.23;83.91
16544;BME280;8384;47.996;7.786;2023-03-02T06:29:39;98752.28;;;-0.44;84.27
16544;BME280;8384;47.996;7.786;2023-03-02T06:32:04;98754.94;;;-0.29;84.14
16544;BME280;8384;47.996;7.786;2023-03-02T06:34:30;98751.53;;;-0.53;84.80
16544;BME280;8384;47.996;7.786;2023-03-02T06:36:55;98742.75;;;-0.47;84.68
16544;BME280;8384;47.996;7.786;2023-03-02T06:39:20;98771.22;;;-0.31;84.37
16544;BME280;8384;47.996;7.786;2023-03-02T06:41:47;98765.34;;;-0.41;84.17
16544;BME280;8384;47.996;7.786;2023-03-02T06:44:14;98729.00;;;-0.73;84.46
16544;BME280;8384;47.996;7.786;2023-03-02T06:46:39;98783.16;;;-0.55;85.36
16544;BME280;8384;47.996;7.786;2023-03-02T06:49:06;98786.28;;;-0.51;85.35
16544;BME280;8384;47.996;7.786;2023-03-02T06:51:32;98776.78;;;-0.69;85.20
16544;BME280;8384;47.996;7.786;2023-03-02T06:53:58;98780.84;;;-0.58;85.27
16544;BME280;8384;47.996;7.786;2023-03-02T06:56:23;98772.06;;;-0.67;86.51
16544;BME280;8384;47.996;7.786;2023-03-02T06:58:49;98787.28;;;-0.52;85.56
16544;BME280;8384;47.996;7.786;2023-03-02T07:01:15;98792.22;;;-0.56;86.38
16544;BME280;8384;47.996;7.786;2023-03-02T07:03:40;98786.53;;;-0.46;86.80
16544;BME280;8384;47.996;7.786;2023-03-02T07:06:05;98786.03;;;-0.35;85.43
16544;BME280;8384;47.996;7.786;2023-03-02T07:08:31;98778.25;;;-0.29;84.30
16544;BME280;8384;47.996;7.786;2023-03-02T07:10:56;98773.09;;;-0.31;83.99
16544;BME280;8384;47.996;7.786;2023-03-02T07:13:21;98799.00;;;-0.23;84.22
16544;BME280;8384;47.996;7.786;2023-03-02T07:15:47;98800.50;;;-0.36;85.50
16544;BME280;8384;47.996;7.786;2023-03-02T07:18:12;98791.75;;;-0.23;85.69
16544;BME280;8384;47.996;7.786;2023-03-02T07:20:37;98791.84;;;-0.16;84.63
16544;BME280;8384;47.996;7.786;2023-03-02T07:23:04;98803.72;;;-0.04;84.60
16544;BME280;8384;47.996;7.786;2023-03-02T07:25:30;98810.91;;;0.11;83.43
16544;BME280;8384;47.996;7.786;2023-03-02T07:27:55;98800.81;;;0.13;81.71
16544;BME280;8384;47.996;7.786;2023-03-02T07:30:21;98794.91;;;0.03;82.11
16544;BME280;8384;47.996;7.786;2023-03-02T07:32:47;98804.00;;;0.02;82.36
16544;BME280;8384;47.996;7.786;2023-03-02T07:35:12;98811.22;;;0.01;82.41
16544;BME280;8384;47.996;7.786;2023-03-02T07:37:38;98809.75;;;-0.02;83.61
16544;BME280;8384;47.996;7.786;2023-03-02T07:40:04;98808.72;;;-0.01;84.15
16544;BME280;8384;47.996;7.786;2023-03-02T07:42:31;98827.84;;;0.33;81.45
16544;BME280;8384;47.996;7.786;2023-03-02T07:44:56;98803.28;;;0.14;82.17
16544;BME280;8384;47.996;7.786;2023-03-02T07:47:21;98811.56;;;0.13;81.72
16544;BME280;8384;47.996;7.786;2023-03-02T07:49:46;98807.81;;;-0.08;82.72
16544;BME280;8384;47.996;7.786;2023-03-02T07:52:12;98831.91;;;0.22;81.69
16544;BME280;8384;47.996;7.786;2023-03-02T07:54:37;98807.66;;;0.16;82.19
16544;BME280;8384;47.996;7.786;2023-03-02T07:57:03;98832.75;;;0.23;82.36
16544;BME280;8384;47.996;7.786;2023-03-02T07:59:28;98820.81;;;0.10;82.76
16544;BME280;8384;47.996;7.786;2023-03-02T08:01:54;98827.09;;;0.18;82.06
16544;BME280;8384;47.996;7.786;2023-03-02T08:04:20;98821.09;;;0.16;82.00
16544;BME280;8384;47.996;7.786;2023-03-02T08:06:45;98815.44;;;0.10;82.52
16544;BME280;8384;47.996;7.786;2023-03-02T08:09:11;98822.47;;;0.33;80.92
16544;BME280;8384;47.996;7.786;2023-03-02T08:11:36;98854.63;;;0.41;80.67
16544;BME280;8384;47.996;7.786;2023-03-02T08:14:02;98854.03;;;0.46;81.22
16544;BME280;8384;47.996;7.786;2023-03-02T08:16:27;98856.56;;;0.48;81.77
16544;BME280;8384;47.996;7.786;2023-03-02T08:18:53;98840.41;;;0.48;81.09
16544;BME280;8384;47.996;7.786;2023-03-02T08:21:21;98853.66;;;0.49;81.13
16544;BME280;8384;47.996;7.786;2023-03-02T08:23:47;98857.97;;;0.43;81.80
16544;BME280;8384;47.996;7.786;2023-03-02T08:26:13;98839.47;;;0.34;82.29
16544;BME280;8384;47.996;7.786;2023-03-02T08:28:39;98864.59;;;0.69;81.89
16544;BME280;8384;47.996;7.786;2023-03-02T08:31:05;98871.00;;;0.97;80.44
16544;BME280;8384;47.996;7.786;2023-03-02T08:33:31;98847.69;;;0.76;79.23
16544;BME280;8384;47.996;7.786;2023-03-02T08:36:05;98851.53;;;0.66;80.96
16544;BME280;8384;47.996;7.786;2023-03-02T08:38:32;98872.63;;;0.91;79.51
16544;BME280;8384;47.996;7.786;2023-03-02T08:41:01;98882.16;;;0.94;78.46
16544;BME280;8384;47.996;7.786;2023-03-02T08:43:26;98863.91;;;0.61;79.25
16544;BME280;8384;47.996;7.786;2023-03-02T08:45:53;98859.09;;;0.78;79.02
16544;BME280;8384;47.996;7.786;2023-03-02T08:48:22;98883.00;;;0.94;77.85
16544;BME280;8384;47.996;7.786;2023-03-02T08:53:23;98885.91;;;0.93;78.84
16544;BME280;8384;47.996;7.786;2023-03-02T08:55:48;98853.59;;;0.42;79.52
16544;BME280;8384;47.996;7.786;2023-03-02T08:58:14;98888.00;;;0.97;78.00
16544;BME280;8384;47.996;7.786;2023-03-02T09:00:39;98910.13;;;0.93;79.46
16544;BME280;8384;47.996;7.786;2023-03-02T09:03:04;98869.97;;;1.26;76.72
16544;BME280;8384;47.996;7.786;2023-03-02T09:05:29;98851.56;;;1.30;76.14
16544;BME280;8384;47.996;7.786;2023-03-02T09:07:55;98856.31;;;1.28;77.67
16544;BME280;8384;47.996;7.786;2023-03-02T09:10:20;98854.53;;;1.42;75.13
16544;BME280;8384;47.996;7.786;2023-03-02T09:12:45;98880.38;;;1.71;74.24
16544;BME280;8384;47.996;7.786;2023-03-02T09:15:11;98874.91;;;1.58;75.01
16544;BME280;8384;47.996;7.786;2023-03-02T09:17:36;98858.53;;;1.59;74.63
16544;BME280;8384;47.996;7.786;2023-03-02T09:20:01;98847.09;;;1.50;74.99
16544;BME280;8384;47.996;7.786;2023-03-02T09:22:27;98886.03;;;1.90;74.86
16544;BME280;8384;47.996;7.786;2023-03-02T09:24:52;98857.59;;;1.80;75.03
16544;BME280;8384;47.996;7.786;2023-03-02T09:27:18;98873.69;;;2.09;72.28
16544;BME280;8384;47.996;7.786;2023-03-02T09:29:43;98852.03;;;1.89;72.42
16544;BME280;8384;47.996;7.786;2023-03-02T09:32:08;98898.16;;;2.14;72.44
16544;BME280;8384;47.996;7.786;2023-03-02T09:34:33;98904.94;;;1.97;73.10
16544;BME280;8384;47.996;7.786;2023-03-02T09:36:59;98898.75;;;2.09;72.27
16544;BME280;8384;47.996;7.786;2023-03-02T09:39:24;98901.69;;;2.15;72.53
16544;BME280;8384;47.996;7.786;2023-03-02T09:44:42;98898.56;;;2.11;73.30
16544;BME280;8384;47.996;7.786;2023-03-02T09:49:59;98877.56;;;1.93;72.74
16544;BME280;8384;47.996;7.786;2023-03-02T09:52:40;98912.88;;;2.18;72.80
16544;BME280;8384;47.996;7.786;2023-03-02T09:55:18;98909.16;;;2.13;73.52
16544;BME280;8384;47.996;7.786;2023-03-02T09:57:46;98913.38;;;2.42;72.43
16544;BME280;8384;47.996;7.786;2023-03-02T10:00:14;98911.06;;;2.39;72.48
16544;BME280;8384;47.996;7.786;2023-03-02T10:02:49;98897.56;;;2.32;72.87
16544;BME280;8384;47.996;7.786;2023-03-02T10:05:24;98870.81;;;2.24;72.28
16544;BME280;8384;47.996;7.786;2023-03-02T10:07:51;98903.25;;;2.51;71.59
16544;BME280;8384;47.996;7.786;2023-03-02T10:12:57;98935.00;;;2.49;71.22
16544;BME280;8384;47.996;7.786;2023-03-02T10:15:33;98918.75;;;2.35;73.00
16544;BME280;8384;47.996;7.786;2023-03-02T10:20:45;98927.13;;;2.61;71.60
16544;BME280;8384;47.996;7.786;2023-03-02T10:31:58;98935.03;;;3.16;69.97
16544;BME280;8384;47.996;7.786;2023-03-02T10:34:27;98931.91;;;3.26;69.51
16544;BME280;8384;47.996;7.786;2023-03-02T10:36:53;98916.34;;;3.28;68.13
16544;BME280;8384;47.996;7.786;2023-03-02T10:39:18;98927.75;;;3.50;68.19
16544;BME280;8384;47.996;7.786;2023-03-02T10:41:51;98923.75;;;3.66;67.99
16544;BME280;8384;47.996;7.786;2023-03-02T10:44:36;98935.13;;;3.88;67.14
16544;BME280;8384;47.996;7.786;2023-03-02T10:47:05;98903.88;;;3.00;67.72
16544;BME280;8384;47.996;7.786;2023-03-02T10:49:34;98927.97;;;3.35;67.38
16544;BME280;8384;47.996;7.786;2023-03-02T10:52:05;98938.66;;;3.89;65.91
16544;BME280;8384;47.996;7.786;2023-03-02T10:54:32;98901.94;;;3.48;65.93
16544;BME280;8384;47.996;7.786;2023-03-02T10:57:03;98920.88;;;3.41;67.09
16544;BME280;8384;47.996;7.786;2023-03-02T11:02:18;98924.34;;;3.82;65.60
16544;BME280;8384;47.996;7.786;2023-03-02T11:04:47;98874.34;;;3.32;66.11
16544;BME280;8384;47.996;7.786;2023-03-02T11:07:20;98921.88;;;3.67;66.68
16544;BME280;8384;47.996;7.786;2023-03-02T11:12:22;98910.91;;;3.48;66.38
16544;BME280;8384;47.996;7.786;2023-03-02T11:14:47;98922.28;;;3.77;66.70
16544;BME280;8384;47.996;7.786;2023-03-02T11:17:30;98923.09;;;3.78;65.88
16544;BME280;8384;47.996;7.786;2023-03-02T11:19:57;98892.19;;;4.05;63.98
16544;BME280;8384;47.996;7.786;2023-03-02T11:22:44;98917.63;;;3.98;65.26
16544;BME280;8384;47.996;7.786;2023-03-02T11:25:28;98920.06;;;4.52;64.03
16544;BME280;8384;47.996;7.786;2023-03-02T11:28:03;98923.09;;;4.69;62.94
16544;BME280;8384;47.996;7.786;2023-03-02T11:30:35;98924.03;;;4.81;63.54
16544;BME280;8384;47.996;7.786;2023-03-02T11:35:54;98907.16;;;4.54;62.20
16544;BME280;8384;47.996;7.786;2023-03-02T11:38:28;98918.75;;;5.18;61.62
16544;BME280;8384;47.996;7.786;2023-03-02T11:41:05;98915.09;;;5.31;60.77
16544;BME280;8384;47.996;7.786;2023-03-02T11:43:37;98920.78;;;4.72;62.34
16544;BME280;8384;47.996;7.786;2023-03-02T11:46:06;98909.81;;;4.60;62.75
16544;BME280;8384;47.996;7.786;2023-03-02T11:48:41;98921.00;;;4.71;62.63
16544;BME280;8384;47.996;7.786;2023-03-02T11:51:13;98912.44;;;4.74;63.38
16544;BME280;8384;47.996;7.786;2023-03-02T11:53:46;98894.22;;;4.88;61.92
16544;BME280;8384;47.996;7.786;2023-03-02T11:56:14;98885.75;;;5.03;60.81
16544;BME280;8384;47.996;7.786;2023-03-02T11:58:41;98898.41;;;5.09;61.13
16544;BME280;8384;47.996;7.786;2023-03-02T12:01:16;98883.09;;;5.21;61.35
16544;BME280;8384;47.996;7.786;2023-03-02T12:03:43;98914.47;;;5.73;60.15
16544;BME280;8384;47.996;7.786;2023-03-02T12:08:49;98906.16;;;5.86;58.92
16544;BME280;8384;47.996;7.786;2023-03-02T12:16:36;98885.69;;;5.53;58.64
16544;BME280;8384;47.996;7.786;2023-03-02T12:19:24;98894.78;;;5.40;59.74
16544;BME280;8384;47.996;7.786;2023-03-02T12:22:02;98910.34;;;5.01;60.99
16544;BME280;8384;47.996;7.786;2023-03-02T12:24:35;98912.72;;;4.91;62.22
16544;BME280;8384;47.996;7.786;2023-03-02T12:32:32;98894.53;;;5.23;60.77
16544;BME280;8384;47.996;7.786;2023-03-02T12:37:44;98892.13;;;4.90;61.12
16544;BME280;8384;47.996;7.786;2023-03-02T12:40:31;98907.84;;;5.25;60.43
16544;BME280;8384;47.996;7.786;2023-03-02T12:46:01;98909.28;;;5.90;58.86
16544;BME280;8384;47.996;7.786;2023-03-02T12:48:42;98907.22;;;5.85;57.81
16544;BME280;8384;47.996;7.786;2023-03-02T12:51:25;98881.16;;;5.66;58.35
16544;BME280;8384;47.996;7.786;2023-03-02T12:54:04;98885.00;;;5.58;59.28
16544;BME280;8384;47.996;7.786;2023-03-02T12:56:30;98889.91;;;5.86;59.00
16544;BME280;8384;47.996;7.786;2023-03-02T12:58:56;98874.22;;;5.89;58.22
16544;BME280;8384;47.996;7.786;2023-03-02T13:01:24;98908.88;;;5.86;58.00
16544;BME280;8384;47.996;7.786;2023-03-02T13:03:51;98893.59;;;5.55;58.73
16544;BME280;8384;47.996;7.786;2023-03-02T13:06:18;98865.69;;;5.29;60.01
16544;BME280;8384;47.996;7.786;2023-03-02T13:08:45;98899.06;;;5.30;60.84
16544;BME280;8384;47.996;7.786;2023-03-02T13:11:12;98889.50;;;5.46;60.38
16544;BME280;8384;47.996;7.786;2023-03-02T13:13:44;98874.91;;;5.47;60.46
16544;BME280;8384;47.996;7.786;2023-03-02T13:16:21;98893.59;;;5.55;59.90
16544;BME280;8384;47.996;7.786;2023-03-02T13:18:48;98896.66;;;5.40;60.15
16544;BME280;8384;47.996;7.786;2023-03-02T13:21:15;98876.78;;;5.46;60.64
16544;BME280;8384;47.996;7.786;2023-03-02T13:23:48;98896.66;;;5.40;60.88
16544;BME280;8384;47.996;7.786;2023-03-02T13:26:26;98887.19;;;5.49;60.19
16544;BME280;8384;47.996;7.786;2023-03-02T13:31:36;98894.25;;;5.06;62.60
16544;BME280;8384;47.996;7.786;2023-03-02T13:34:01;98877.66;;;5.21;61.95
16544;BME280;8384;47.996;7.786;2023-03-02T13:36:29;98885.38;;;5.43;61.53
16544;BME280;8384;47.996;7.786;2023-03-02T13:38:58;98894.28;;;5.69;60.15
16544;BME280;8384;47.996;7.786;2023-03-02T13:41:29;98894.88;;;5.90;58.90
16544;BME280;8384;47.996;7.786;2023-03-02T13:43:55;98893.91;;;5.84;59.02
16544;BME280;8384;47.996;7.786;2023-03-02T13:48:54;98881.53;;;5.51;59.72
16544;BME280;8384;47.996;7.786;2023-03-02T13:51:20;98884.09;;;5.46;59.53
16544;BME280;8384;47.996;7.786;2023-03-02T13:53:57;98894.66;;;5.73;59.52
16544;BME280;8384;47.996;7.786;2023-03-02T13:56:27;98875.91;;;5.71;59.35
16544;BME280;8384;47.996;7.786;2023-03-02T13:58:54;98891.31;;;5.70;59.74
16544;BME280;8384;47.996;7.786;2023-03-02T14:01:19;98894.41;;;5.37;60.49
16544;BME280;8384;47.996;7.786;2023-03-02T14:03:44;98879.25;;;5.48;60.56
16544;BME280;8384;47.996;7.786;2023-03-02T14:06:10;98877.41;;;5.48;60.46
16544;BME280;8384;47.996;7.786;2023-03-02T14:08:35;98853.72;;;5.18;60.85
16544;BME280;8384;47.996;7.786;2023-03-02T14:11:02;98892.22;;;5.46;60.00
16544;BME280;8384;47.996;7.786;2023-03-02T14:13:34;98845.16;;;5.21;60.57
16544;BME280;8384;47.996;7.786;2023-03-02T14:16:01;98889.00;;;5.55;60.59
16544;BME280;8384;47.996;7.786;2023-03-02T14:20:55;98857.50;;;5.36;60.45
16544;BME280;8384;47.996;7.786;2023-03-02T14:23:22;98879.19;;;5.36;60.25
16544;BME280;8384;47.996;7.786;2023-03-02T14:25:49;98866.22;;;5.38;59.93